Airfield :
LOGIN :

Register | Disclaimer

   EN    FR    IT 

 










Legend :    VFR   Marginal VFR   IFR   Intensive IFR   Very Intensive IFR
Visi :
Ceiling :
>= 8 km
>= 3000ft
5 to 8 km
1000 to 3000 ft
1500m to 5 km
500 to 1000 ft
800 to 1500m
200 to 500 ft
< 800m
< 200 ft
Symbols :   Thunderstorms  Fog  Heavy snow  Heavy precipitations  Wind > 20 kt
SIGMETs :     Misc.  Thunderstorms  Icing  Turbulence  Mountain Waves  Volcanic Ashes







- Airport Elevation : 124 ft
- IATA code : NHT
- Download approach charts


EGWU - RAF Northolt

CURRENT METAR :
  • 210823Z 25007KT 9999 FEW020 BKN050 BKN250 19/14 Q1020 NOSIG RMK BLU BLU

EXPIRED METARs :
  • 210750Z 23006KT 9999 FEW045 BKN250 18/13 Q1020 NOSIG RMK BLU BLU
  • 210721Z 24008KT CAVOK 16/13 Q1020 NOSIG RMK BLU BLU
  • 210650Z 24008KT CAVOK 15/13 Q1020 NOSIG RMK BLU BLU
  • 210624Z 24005KT CAVOK 15/13 Q1020 NOSIG RMK BLU BLU
  • 210550Z 22005KT CAVOK 14/13 Q1019 NOSIG RMK BLU BLU

TAF TAF EGWU
Valid from the 21 at 09:00 until the 22 at 03:00 UTC


210742Z 2109/2203 24008KT 9999 FEW045
PROB40 2122/2203 BKN010
No reported NOTAMs for that airfield.



MET'MAP, your aeronautical weather chart ! - Copyright ORBIFLY December 2007 - Disclaimer

ORBIFLY MET'MAP TEAM :

Programming & Development : Alexandra Zaïnal
Concept & Development : Baudouin d'Aumeries
Co-Development & Prog : Marc-Olivier Méhu
Technical & hardware support : Manuel Goepfert

Contact : metmap@orbifly.com




SOURCES & CREDITS :

   NOAA